createdAt,value
2023-03-30T00:01:47.507Z,12.40
2023-03-30T00:04:22.655Z,12.40
2023-03-30T00:06:55.583Z,12.40
2023-03-30T00:09:30.686Z,12.30
2023-03-30T00:12:03.792Z,12.40
2023-03-30T00:14:37.498Z,12.50
2023-03-30T00:17:10.478Z,12.70
2023-03-30T00:19:43.445Z,12.70
2023-03-30T00:22:16.202Z,12.80
2023-03-30T00:24:48.900Z,12.90
2023-03-30T00:27:21.634Z,13.00
2023-03-30T00:29:54.287Z,13.20
2023-03-30T00:32:27.106Z,13.20
2023-03-30T00:35:00.263Z,13.30
2023-03-30T00:37:33.267Z,13.30
2023-03-30T00:40:08.786Z,13.30
2023-03-30T00:42:41.635Z,13.20
2023-03-30T00:45:20.684Z,13.20
2023-03-30T00:48:11.787Z,13.20
2023-03-30T00:51:07.389Z,13.20
2023-03-30T00:53:44.311Z,13.20
2023-03-30T00:56:22.929Z,13.20
2023-03-30T00:58:55.842Z,13.20
2023-03-30T01:01:29.894Z,13.20
2023-03-30T01:04:05.583Z,13.10
2023-03-30T01:06:40.185Z,13.10
2023-03-30T01:09:15.374Z,13.10
2023-03-30T01:11:48.160Z,13.10
2023-03-30T01:14:20.897Z,13.10
2023-03-30T01:17:13.485Z,13.00
2023-03-30T01:20:12.617Z,13.00
2023-03-30T01:23:02.010Z,13.00
2023-03-30T01:26:08.959Z,13.00
2023-03-30T01:28:52.463Z,12.90
2023-03-30T01:31:41.778Z,12.90
2023-03-30T01:34:33.678Z,12.90
2023-03-30T01:37:15.131Z,12.90
2023-03-30T01:39:55.842Z,12.90
2023-03-30T01:42:48.286Z,12.90
2023-03-30T01:45:36.858Z,12.80
2023-03-30T01:48:23.701Z,12.80
2023-03-30T01:51:01.381Z,12.80
2023-03-30T01:53:44.186Z,12.80
2023-03-30T01:56:29.149Z,12.70
2023-03-30T01:59:19.923Z,12.70
2023-03-30T02:02:00.577Z,12.70
2023-03-30T02:04:38.722Z,12.70
2023-03-30T02:07:19.204Z,12.70
2023-03-30T02:09:56.179Z,12.70
2023-03-30T02:12:30.814Z,12.70
2023-03-30T02:15:08.424Z,12.70
2023-03-30T02:17:42.319Z,12.80
2023-03-30T02:20:18.831Z,12.80
2023-03-30T02:22:51.796Z,12.80
2023-03-30T02:25:25.369Z,12.80
2023-03-30T02:27:58.261Z,12.80
2023-03-30T02:30:35.779Z,12.70
2023-03-30T02:33:18.845Z,12.70
2023-03-30T02:36:13.017Z,12.70
2023-03-30T02:39:05.045Z,12.70
2023-03-30T02:42:05.116Z,12.60
2023-03-30T02:44:50.276Z,12.60
2023-03-30T02:47:41.179Z,12.60
2023-03-30T02:50:38.444Z,12.60
2023-03-30T02:53:53.527Z,12.60
2023-03-30T02:57:01.520Z,12.60
2023-03-30T03:00:01.324Z,12.60
2023-03-30T03:02:46.877Z,12.60
2023-03-30T03:05:32.400Z,12.50
2023-03-30T03:08:14.958Z,12.50
2023-03-30T03:10:49.410Z,12.50
2023-03-30T03:13:24.365Z,12.50
2023-03-30T03:15:57.211Z,12.50
2023-03-30T03:18:32.499Z,12.50
2023-03-30T03:21:06.603Z,12.50
2023-03-30T03:23:39.747Z,12.50
2023-03-30T03:26:13.982Z,12.40
2023-03-30T03:28:46.670Z,12.40
2023-03-30T03:31:19.414Z,12.40
2023-03-30T03:33:52.828Z,12.40
2023-03-30T03:36:30.435Z,12.30
2023-03-30T03:39:03.964Z,12.30
2023-03-30T03:41:36.800Z,12.20
2023-03-30T03:44:09.425Z,12.20
2023-03-30T03:46:42.363Z,12.20
2023-03-30T03:49:15.353Z,12.20
2023-03-30T03:51:48.071Z,12.20
2023-03-30T03:54:21.015Z,12.20
2023-03-30T03:56:55.247Z,12.20
2023-03-30T03:59:28.132Z,12.30
2023-03-30T04:02:00.991Z,12.40
2023-03-30T04:04:34.073Z,12.60
2023-03-30T04:07:06.889Z,12.60
2023-03-30T04:09:39.567Z,12.60
2023-03-30T04:12:41.746Z,12.60
2023-03-30T04:15:33.601Z,12.60
2023-03-30T04:18:35.104Z,12.50
2023-03-30T04:21:29.606Z,12.50
2023-03-30T04:24:15.155Z,12.40
2023-03-30T04:27:09.549Z,12.30
2023-03-30T04:29:50.322Z,12.30
2023-03-30T04:32:41.810Z,12.30
2023-03-30T04:35:34.823Z,12.20
2023-03-30T04:38:26.262Z,12.10
2023-03-30T04:41:26.109Z,12.10
2023-03-30T04:44:20.275Z,12.10
2023-03-30T04:47:11.497Z,12.10
2023-03-30T04:50:10.859Z,12.10
2023-03-30T04:53:02.262Z,12.10
2023-03-30T04:55:52.278Z,12.10
2023-03-30T04:59:00.468Z,12.10
2023-03-30T05:01:51.645Z,12.10
2023-03-30T05:04:40.336Z,12.10
2023-03-30T05:07:44.968Z,12.10
2023-03-30T05:10:27.027Z,12.10
2023-03-30T05:13:20.515Z,12.10
2023-03-30T05:16:29.187Z,12.10
2023-03-30T05:19:11.256Z,12.00
2023-03-30T05:21:54.135Z,12.00
2023-03-30T05:24:49.066Z,12.00
2023-03-30T05:27:21.742Z,12.00
2023-03-30T05:30:04.000Z,12.00
2023-03-30T05:32:50.024Z,12.00
2023-03-30T05:35:49.205Z,12.00
2023-03-30T05:38:44.717Z,11.90
2023-03-30T05:41:31.652Z,12.00
2023-03-30T05:44:12.877Z,11.90
2023-03-30T05:47:16.404Z,11.90
2023-03-30T05:50:02.067Z,12.00
2023-03-30T05:52:42.711Z,12.00
2023-03-30T05:55:30.497Z,12.00
2023-03-30T05:58:12.351Z,12.00
2023-03-30T06:01:12.033Z,12.00
2023-03-30T06:03:46.283Z,12.10
2023-03-30T06:06:19.700Z,12.10
2023-03-30T06:08:55.799Z,12.10
2023-03-30T06:11:31.719Z,12.10
2023-03-30T06:14:12.914Z,12.10
2023-03-30T06:16:48.625Z,12.10
2023-03-30T06:19:22.170Z,12.00
2023-03-30T06:21:55.609Z,12.00
2023-03-30T06:24:54.451Z,12.00
2023-03-30T06:27:27.497Z,12.10
2023-03-30T06:30:00.561Z,12.10
2023-03-30T06:32:33.417Z,12.10
2023-03-30T06:35:06.517Z,12.20
2023-03-30T06:37:40.376Z,12.20
2023-03-30T06:40:13.909Z,12.20
2023-03-30T06:42:48.698Z,12.20
2023-03-30T06:45:42.021Z,12.30
2023-03-30T06:48:14.729Z,12.30
2023-03-30T06:50:47.777Z,12.40
2023-03-30T06:53:38.828Z,12.40
2023-03-30T06:56:11.765Z,12.60
2023-03-30T06:58:57.616Z,12.70
2023-03-30T07:01:30.334Z,12.70
2023-03-30T07:04:20.701Z,12.70
2023-03-30T07:07:25.852Z,12.70
2023-03-30T07:09:58.766Z,12.70
2023-03-30T07:12:31.447Z,12.60
2023-03-30T07:15:07.100Z,12.60
2023-03-30T07:17:41.163Z,12.60
2023-03-30T07:20:17.081Z,12.60
2023-03-30T07:23:08.813Z,12.60
2023-03-30T07:25:42.021Z,12.50
2023-03-30T07:28:33.109Z,12.60
2023-03-30T07:31:11.128Z,12.50
2023-03-30T07:33:45.785Z,12.60
2023-03-30T07:36:22.742Z,12.60
2023-03-30T07:38:55.932Z,12.60
2023-03-30T07:41:28.693Z,12.70
2023-03-30T07:44:04.409Z,12.70
2023-03-30T07:46:37.287Z,12.70
2023-03-30T07:49:10.603Z,12.80
2023-03-30T07:51:45.238Z,12.80
2023-03-30T07:54:28.781Z,12.80
2023-03-30T07:57:18.942Z,12.80
2023-03-30T07:59:51.892Z,12.80
2023-03-30T08:02:35.418Z,12.80
2023-03-30T08:05:09.467Z,12.80
2023-03-30T08:07:53.807Z,12.70
2023-03-30T08:10:32.267Z,12.80
2023-03-30T08:13:05.120Z,12.70
2023-03-30T08:15:37.807Z,12.80
2023-03-30T08:18:12.791Z,12.90
2023-03-30T08:20:45.502Z,13.00
2023-03-30T08:23:18.909Z,13.10
2023-03-30T08:25:52.781Z,13.20
2023-03-30T08:28:25.976Z,13.10
2023-03-30T08:31:06.534Z,13.10
2023-03-30T08:33:39.666Z,13.20
2023-03-30T08:36:15.189Z,13.20
2023-03-30T08:38:48.015Z,13.20
2023-03-30T08:41:29.378Z,13.30
2023-03-30T08:44:16.506Z,13.60
2023-03-30T08:46:50.692Z,13.80
2023-03-30T08:49:26.477Z,14.00
2023-03-30T08:52:04.476Z,14.00
2023-03-30T08:54:37.445Z,13.90
2023-03-30T08:57:20.783Z,14.00
2023-03-30T09:00:19.861Z,13.90
2023-03-30T09:03:04.809Z,13.90
2023-03-30T09:05:47.265Z,13.90
2023-03-30T09:08:28.879Z,14.00
2023-03-30T09:11:07.128Z,14.00
2023-03-30T09:13:44.005Z,13.90
2023-03-30T09:16:26.147Z,13.90
2023-03-30T09:19:01.553Z,14.10
2023-03-30T09:21:34.309Z,14.20
2023-03-30T09:24:16.675Z,14.40
2023-03-30T09:26:57.371Z,14.50
2023-03-30T09:29:42.338Z,14.60
2023-03-30T09:32:29.298Z,14.70
2023-03-30T09:35:10.870Z,14.70
2023-03-30T09:37:43.787Z,14.70
2023-03-30T09:40:44.322Z,14.90
2023-03-30T09:43:32.009Z,15.10
2023-03-30T09:46:09.094Z,15.20
2023-03-30T09:48:44.568Z,15.30
2023-03-30T09:51:27.022Z,15.40
2023-03-30T09:54:06.463Z,15.50
2023-03-30T09:56:47.587Z,15.50
2023-03-30T09:59:28.190Z,15.30
2023-03-30T10:02:13.208Z,15.20
2023-03-30T10:04:57.880Z,15.30
2023-03-30T10:07:37.916Z,15.40
2023-03-30T10:10:37.771Z,15.30
2023-03-30T10:13:16.365Z,15.50
2023-03-30T10:15:53.724Z,15.70
2023-03-30T10:18:37.355Z,15.80
2023-03-30T10:21:13.109Z,16.00
2023-03-30T10:23:58.330Z,16.20
2023-03-30T10:26:31.210Z,16.40
2023-03-30T10:29:09.011Z,16.50
2023-03-30T10:31:46.103Z,16.60
2023-03-30T10:34:23.473Z,16.80
2023-03-30T10:36:57.354Z,16.60
2023-03-30T10:39:33.429Z,16.50
2023-03-30T10:42:21.527Z,16.40
2023-03-30T10:44:56.829Z,16.20
2023-03-30T10:47:48.088Z,16.20
2023-03-30T10:50:42.974Z,16.30
2023-03-30T10:53:40.514Z,16.20
2023-03-30T10:56:37.877Z,16.20
2023-03-30T10:59:48.590Z,16.40
2023-03-30T11:02:39.415Z,16.70
2023-03-30T11:05:22.640Z,17.00
2023-03-30T11:08:04.001Z,17.00
2023-03-30T11:10:53.262Z,16.80
2023-03-30T11:13:42.818Z,16.80
2023-03-30T11:16:34.461Z,16.60
2023-03-30T11:19:33.625Z,16.40
2023-03-30T11:22:21.403Z,16.00
2023-03-30T11:24:56.686Z,15.90
2023-03-30T11:27:39.854Z,15.70
2023-03-30T11:30:24.506Z,15.70
2023-03-30T11:33:25.730Z,15.70
2023-03-30T11:36:21.940Z,16.00
2023-03-30T11:39:00.535Z,16.20
2023-03-30T11:41:42.290Z,16.60
2023-03-30T11:44:14.998Z,16.90
2023-03-30T11:47:20.092Z,16.60
2023-03-30T11:50:02.714Z,16.30
2023-03-30T11:52:44.199Z,16.10
2023-03-30T11:55:29.691Z,15.90
2023-03-30T11:58:14.672Z,16.10
2023-03-30T12:00:59.505Z,16.60
2023-03-30T12:03:42.668Z,17.20
2023-03-30T12:06:32.470Z,17.80
2023-03-30T12:09:20.222Z,18.50
2023-03-30T12:12:02.117Z,18.10
2023-03-30T12:14:47.463Z,17.50
2023-03-30T12:17:44.651Z,16.90
2023-03-30T12:20:36.112Z,16.70
2023-03-30T12:23:17.815Z,16.60
2023-03-30T12:26:19.507Z,16.30
2023-03-30T12:29:40.535Z,15.90
2023-03-30T12:31:59.101Z,15.70
2023-03-30T12:34:41.509Z,15.50
2023-03-30T12:37:28.572Z,15.90
2023-03-30T12:40:12.216Z,16.50
2023-03-30T12:43:18.783Z,16.40
2023-03-30T12:46:05.854Z,16.40
2023-03-30T12:49:04.269Z,16.10
2023-03-30T12:52:21.507Z,16.00
2023-03-30T12:55:28.393Z,16.40
2023-03-30T12:58:07.929Z,17.40
2023-03-30T13:01:03.068Z,18.00
2023-03-30T13:03:54.042Z,18.20
2023-03-30T13:07:12.109Z,18.00
2023-03-30T13:09:54.975Z,17.70
2023-03-30T13:12:27.823Z,17.30
2023-03-30T13:15:20.728Z,17.00
2023-03-30T13:18:00.739Z,16.90
2023-03-30T13:20:45.988Z,17.00
2023-03-30T13:23:21.336Z,17.20
2023-03-30T13:26:03.351Z,17.20
2023-03-30T13:28:45.694Z,17.10
2023-03-30T13:31:37.584Z,17.00
2023-03-30T13:34:32.355Z,16.80
2023-03-30T13:37:31.785Z,16.50
2023-03-30T13:40:37.270Z,16.10
2023-03-30T13:43:27.150Z,15.80
2023-03-30T13:46:17.791Z,15.50
2023-03-30T13:49:02.399Z,15.20
2023-03-30T13:51:37.790Z,15.10
2023-03-30T13:54:21.277Z,14.90
2023-03-30T13:57:33.495Z,14.70
2023-03-30T14:00:33.159Z,14.60
2023-03-30T14:03:41.790Z,14.70
2023-03-30T14:06:14.517Z,14.80
2023-03-30T14:08:49.970Z,14.70
2023-03-30T14:11:39.858Z,14.70
2023-03-30T14:14:30.989Z,14.80
2023-03-30T14:17:17.173Z,14.70
2023-03-30T14:20:06.704Z,14.70
2023-03-30T14:22:43.523Z,14.70
2023-03-30T14:25:38.892Z,14.70
2023-03-30T14:28:19.410Z,14.90
2023-03-30T14:30:58.422Z,15.00
2023-03-30T14:33:34.848Z,15.10
2023-03-30T14:36:09.730Z,15.10
2023-03-30T14:38:45.504Z,15.20
2023-03-30T14:41:18.094Z,15.20
2023-03-30T14:44:01.226Z,15.30
2023-03-30T14:46:43.003Z,15.30
2023-03-30T14:49:24.735Z,15.40
2023-03-30T14:52:02.342Z,15.50
2023-03-30T14:54:37.002Z,15.50
2023-03-30T14:57:12.083Z,15.60
2023-03-30T14:59:52.998Z,15.50
2023-03-30T15:02:31.966Z,15.40
2023-03-30T15:05:09.239Z,15.30
2023-03-30T15:07:41.960Z,15.10
2023-03-30T15:10:28.146Z,14.90
2023-03-30T15:13:02.509Z,14.70
2023-03-30T15:15:35.782Z,14.60
2023-03-30T15:18:17.296Z,14.40
2023-03-30T15:20:50.257Z,14.00
2023-03-30T15:23:24.549Z,13.70
2023-03-30T15:26:00.674Z,13.50
2023-03-30T15:28:53.423Z,13.30
2023-03-30T15:31:27.816Z,13.20
2023-03-30T15:34:05.194Z,13.10
2023-03-30T15:36:39.617Z,13.00
2023-03-30T15:39:21.233Z,13.00
2023-03-30T15:41:57.735Z,13.00
2023-03-30T15:44:38.498Z,12.90
2023-03-30T15:47:17.289Z,12.90
2023-03-30T15:49:51.836Z,12.80
2023-03-30T15:52:26.671Z,12.90
2023-03-30T15:55:17.171Z,13.00
2023-03-30T15:57:51.914Z,13.00
2023-03-30T16:00:30.932Z,13.10
2023-03-30T16:03:03.927Z,13.10
2023-03-30T16:05:36.904Z,13.10
2023-03-30T16:08:09.639Z,13.10
2023-03-30T16:10:42.464Z,13.20
2023-03-30T16:13:15.258Z,13.20
2023-03-30T16:15:47.943Z,13.30
2023-03-30T16:18:21.123Z,13.30
2023-03-30T16:20:53.855Z,13.30
2023-03-30T16:23:26.543Z,13.30
2023-03-30T16:25:59.235Z,13.30
2023-03-30T16:28:31.986Z,13.30
2023-03-30T16:31:12.198Z,13.20
2023-03-30T16:33:45.164Z,13.20
2023-03-30T16:36:20.862Z,13.20
2023-03-30T16:38:53.545Z,13.20
2023-03-30T16:41:26.275Z,13.20
2023-03-30T16:43:59.009Z,13.20
2023-03-30T16:46:32.233Z,13.20
2023-03-30T16:49:06.505Z,13.20
2023-03-30T16:51:39.309Z,13.10
2023-03-30T16:54:27.297Z,13.10
2023-03-30T16:57:03.350Z,13.10
2023-03-30T16:59:36.065Z,13.10
2023-03-30T17:02:14.557Z,13.10
2023-03-30T17:04:49.630Z,13.20
2023-03-30T17:07:22.503Z,13.20
2023-03-30T17:09:56.064Z,13.20
2023-03-30T17:12:28.853Z,13.20
2023-03-30T17:15:01.685Z,13.20
2023-03-30T17:17:34.436Z,13.20
2023-03-30T17:20:18.371Z,13.20
2023-03-30T17:22:51.265Z,13.20
2023-03-30T17:25:26.351Z,13.20
2023-03-30T17:27:59.451Z,13.10
2023-03-30T17:30:36.247Z,13.10
2023-03-30T17:33:10.897Z,13.00
2023-03-30T17:35:48.304Z,13.00
2023-03-30T17:38:21.919Z,13.00
2023-03-30T17:40:55.106Z,13.00
2023-03-30T17:43:28.084Z,13.00
2023-03-30T17:46:01.405Z,12.90
2023-03-30T17:48:34.227Z,12.90
2023-03-30T17:51:07.197Z,12.90
2023-03-30T17:53:40.251Z,12.90
2023-03-30T17:56:13.640Z,12.80
2023-03-30T17:58:46.650Z,12.80
2023-03-30T18:01:19.333Z,12.80
2023-03-30T18:03:52.239Z,12.70
2023-03-30T18:06:25.733Z,12.70
2023-03-30T18:08:58.468Z,12.70
2023-03-30T18:11:31.115Z,12.70
2023-03-30T18:14:03.957Z,12.60
2023-03-30T18:16:41.083Z,12.60
2023-03-30T18:19:14.026Z,12.60
2023-03-30T18:21:46.645Z,12.60
2023-03-30T18:24:19.278Z,12.60
2023-03-30T18:26:51.938Z,12.60
2023-03-30T18:29:24.631Z,12.60
2023-03-30T18:31:57.424Z,12.50
2023-03-30T18:34:30.342Z,12.50
2023-03-30T18:37:03.098Z,12.50
2023-03-30T18:39:36.153Z,12.50
2023-03-30T18:42:08.933Z,12.40
2023-03-30T18:44:41.674Z,12.40
2023-03-30T18:47:14.394Z,12.40
2023-03-30T18:49:47.112Z,12.40
2023-03-30T18:52:19.834Z,12.40
2023-03-30T18:54:52.646Z,12.40
2023-03-30T18:57:25.424Z,12.40
2023-03-30T18:59:58.274Z,12.50
2023-03-30T19:02:31.029Z,12.50
2023-03-30T19:05:04.190Z,12.50
2023-03-30T19:07:37.093Z,12.50
2023-03-30T19:10:12.088Z,12.60
2023-03-30T19:12:45.652Z,12.60
2023-03-30T19:15:24.516Z,12.60
2023-03-30T19:17:57.606Z,12.60
2023-03-30T19:20:33.108Z,12.60
2023-03-30T19:23:06.132Z,12.60
2023-03-30T19:25:39.172Z,12.60
2023-03-30T19:28:13.545Z,12.60
2023-03-30T19:30:46.543Z,12.50
2023-03-30T19:33:20.805Z,12.50
2023-03-30T19:35:53.596Z,12.40
2023-03-30T19:38:26.445Z,12.40
2023-03-30T19:41:00.958Z,12.30
2023-03-30T19:43:33.786Z,12.30
2023-03-30T19:46:08.644Z,12.30
2023-03-30T19:48:41.778Z,12.40
2023-03-30T19:51:14.780Z,12.40
2023-03-30T19:53:47.468Z,12.30
2023-03-30T19:56:20.986Z,12.20
2023-03-30T19:58:53.745Z,12.20
2023-03-30T20:01:26.525Z,12.20
2023-03-30T20:03:59.493Z,12.20
2023-03-30T20:06:33.357Z,12.20
2023-03-30T20:09:06.230Z,12.20
2023-03-30T20:11:38.870Z,12.30
2023-03-30T20:14:12.922Z,12.30
2023-03-30T20:16:45.862Z,12.30
2023-03-30T20:19:28.962Z,12.30
2023-03-30T20:22:02.774Z,12.20
2023-03-30T20:24:36.845Z,12.20
2023-03-30T20:27:09.725Z,12.20
2023-03-30T20:29:42.744Z,12.10
2023-03-30T20:32:17.261Z,12.10
2023-03-30T20:34:50.002Z,12.10
2023-03-30T20:37:23.145Z,12.10
2023-03-30T20:40:03.701Z,12.00
2023-03-30T20:42:39.768Z,12.00
2023-03-30T20:45:14.236Z,11.90
2023-03-30T20:47:50.234Z,12.00
2023-03-30T20:50:23.048Z,11.90
2023-03-30T20:52:55.804Z,11.90
2023-03-30T20:55:28.539Z,11.90
2023-03-30T20:58:01.423Z,11.90
2023-03-30T21:00:34.080Z,11.90
2023-03-30T21:03:07.594Z,11.90
2023-03-30T21:05:40.521Z,11.90
2023-03-30T21:08:13.754Z,11.90
2023-03-30T21:10:46.406Z,11.90
2023-03-30T21:13:19.968Z,11.90
2023-03-30T21:16:00.507Z,11.90
2023-03-30T21:18:34.647Z,11.90
2023-03-30T21:21:07.454Z,11.90
2023-03-30T21:23:41.374Z,11.90
2023-03-30T21:26:14.276Z,11.80
2023-03-30T21:28:47.094Z,11.80
2023-03-30T21:31:19.813Z,11.80
2023-03-30T21:33:52.596Z,11.70
2023-03-30T21:36:25.329Z,11.60
2023-03-30T21:38:59.309Z,11.60
2023-03-30T21:41:32.128Z,11.50
2023-03-30T21:44:05.058Z,11.50
2023-03-30T21:46:37.792Z,11.40
2023-03-30T21:49:11.772Z,11.50
2023-03-30T21:51:44.633Z,11.40
2023-03-30T21:54:19.081Z,11.40
2023-03-30T21:56:51.931Z,11.40
2023-03-30T21:59:24.707Z,11.40
2023-03-30T22:01:57.554Z,11.40
2023-03-30T22:04:30.325Z,11.40
2023-03-30T22:07:03.784Z,11.40
2023-03-30T22:09:36.716Z,11.40
2023-03-30T22:12:09.404Z,11.40
2023-03-30T22:14:42.068Z,11.40
2023-03-30T22:17:14.864Z,11.40
2023-03-30T22:19:51.765Z,11.40
2023-03-30T22:22:24.611Z,11.50
2023-03-30T22:24:57.253Z,11.50
2023-03-30T22:27:30.447Z,11.50
2023-03-30T22:30:03.958Z,11.50
2023-03-30T22:32:36.815Z,11.60
2023-03-30T22:35:09.731Z,11.60
2023-03-30T22:37:42.773Z,11.60
2023-03-30T22:40:15.650Z,11.60
2023-03-30T22:42:48.363Z,11.60
2023-03-30T22:45:21.265Z,11.60
2023-03-30T22:47:55.423Z,11.60
2023-03-30T22:50:29.776Z,11.60
2023-03-30T22:53:02.516Z,11.60
2023-03-30T22:55:35.373Z,11.60
2023-03-30T22:58:11.400Z,11.60
2023-03-30T23:00:44.181Z,11.60
2023-03-30T23:03:17.520Z,11.50
2023-03-30T23:05:51.677Z,11.50
2023-03-30T23:08:24.443Z,11.40
2023-03-30T23:11:03.965Z,11.50
2023-03-30T23:13:37.403Z,11.50
2023-03-30T23:16:10.885Z,11.50
2023-03-30T23:18:43.688Z,11.40
2023-03-30T23:21:17.149Z,11.50
2023-03-30T23:23:49.888Z,11.50
2023-03-30T23:26:22.706Z,11.50
2023-03-30T23:28:56.160Z,11.50
2023-03-30T23:31:29.027Z,11.60
2023-03-30T23:34:01.813Z,11.60
2023-03-30T23:36:34.922Z,11.60
2023-03-30T23:39:09.158Z,11.60
2023-03-30T23:41:42.930Z,11.60
2023-03-30T23:44:15.718Z,11.60
2023-03-30T23:46:49.093Z,11.60
2023-03-30T23:49:21.802Z,11.60
2023-03-30T23:51:54.651Z,11.60
2023-03-30T23:54:31.293Z,11.60
2023-03-30T23:57:07.031Z,11.60
2023-03-30T23:59:40.075Z,11.60
